Airborne Airpark
KILN : now visible

Airfield :











YOU CAN JOIN US ON...

 
LOGIN :

Register | Disclaimer

   EN    FR    IT 

 









Legend :    VFR   Marginal VFR   IFR   Intensive IFR   Very Intensive IFR
Visi :
Ceiling :
>= 8 km
>= 3000ft
5 to 8 km
1000 to 3000 ft
1500m to 5 km
500 to 1000 ft
800 to 1500m
200 to 500 ft
< 800m
< 200 ft
Symbols :   Thunderstorms  Fog  Heavy snow  Heavy precipitations  Wind > 20 kt







- Airport Elevation : 1077 ft


KILN - Airborne Airpark

CURRENT METAR :
  • 181854Z AUTO 26003KT 10SM FEW038 SCT050 32/22 A2997 RMK AO2 LTG DSNT SW SLP132 T03170222

EXPIRED METARs :
  • 181754Z AUTO 26004KT 10SM SCT035 SCT042 SCT050 31/23 A2998 RMK AO2 SLP138 T03110233 10311 20228 58002
  • 181654Z AUTO VRB06KT 10SM FEW026 FEW034 31/24 A3000 RMK AO2 SLP144 T03060239

TAF KILN
Valid from the 18 at 18:00 until the 19 at 18:00 UTC


181744Z 1818/1918 24006KT P6SM SCT035
FM182000 23009KT P6SM VCTS BKN035CB
FM182200 21006KT P6SM SCT035
FM190100 21006KT P6SM FEW250
TEMPO 1909/1911 5SM BR
FM191500 23009KT P6SM SCT035
KZID FIR / North America



MET'MAP, your aeronautical weather chart ! - Copyright ORBIFLY December 2007 - Disclaimer

ORBIFLY MET'MAP TEAM :

Programming & Development : Alexandra Zaïnal
Concept & Development : Baudouin d'Aumeries
Co-Development & Prog : Marc-Olivier Méhu
Technical & hardware support : Manuel Goepfert

Contact : metmap@orbifly.com




SOURCES & CREDITS :

   NOAA       Earth
Advisory